La Crosse, Indiana
Current Conditions -  °F | °C
As of 5:56 PM on Friday 21 Nov 2014 (Local Time) from KVPZ Reporting Station
Clear Clear  
Wind Chill: 16°   Ceiling: Unl
Heat Index: 25°   Visibility: 10mi
Dew Point: 10°   Wind: 9mph
Humidity: 53%   Direction: 150°SSE
Pressure: 30.35"   Gusts: NA
Location:  41.32°N, 86.89°W
Report Text: KVPZ 212356Z AUTO 15008KT 10SM CLR M04/M12 A3035 RMK AO2 SLP290 T10391122 10006 21039 58009 TSNO
Loading
Personal Weather Stations






























Interactive Weather Map New forecast layout! Learn more

10-Day Weather Forecast

Advertisements
Track Severe Weather on mobile